createdAt,value
2016-11-26T00:01:12.116Z,8.08
2016-11-26T00:02:26.830Z,8.05
2016-11-26T00:03:40.989Z,7.99
2016-11-26T00:04:55.233Z,8.02
2016-11-26T00:06:09.014Z,8.08
2016-11-26T00:07:25.827Z,7.99
2016-11-26T00:08:41.206Z,7.96
2016-11-26T00:09:56.395Z,7.93
2016-11-26T00:11:10.876Z,7.91
2016-11-26T00:12:25.719Z,7.85
2016-11-26T00:13:40.312Z,7.93
2016-11-26T00:14:55.096Z,7.9
2016-11-26T00:16:09.528Z,7.74
2016-11-26T00:17:23.894Z,7.81
2016-11-26T00:18:37.865Z,7.85
2016-11-26T00:19:51.841Z,7.91
2016-11-26T00:21:09.627Z,7.91
2016-11-26T00:22:24.164Z,7.95
2016-11-26T00:23:38.951Z,7.78
2016-11-26T00:24:52.719Z,7.91
2016-11-26T00:26:07.044Z,7.9
2016-11-26T00:27:21.994Z,7.99
2016-11-26T00:28:36.182Z,7.99
2016-11-26T00:29:50.546Z,8.05
2016-11-26T00:31:04.805Z,7.98
2016-11-26T00:32:18.822Z,7.96
2016-11-26T00:33:33.776Z,8.03
2016-11-26T00:34:47.871Z,8.03
2016-11-26T00:36:02.414Z,8.03
2016-11-26T00:37:16.907Z,8.05
2016-11-26T00:38:31.000Z,7.99
2016-11-26T00:40:00.431Z,7.91
2016-11-26T00:41:14.998Z,7.85
2016-11-26T00:42:29.154Z,7.77
2016-11-26T00:43:43.453Z,7.75
2016-11-26T00:44:58.092Z,7.81
2016-11-26T00:46:13.003Z,7.87
2016-11-26T00:47:28.317Z,7.95
2016-11-26T00:48:42.837Z,7.88
2016-11-26T00:49:56.935Z,7.83
2016-11-26T00:51:11.473Z,7.74
2016-11-26T00:52:25.669Z,7.84
2016-11-26T00:53:40.503Z,7.72
2016-11-26T00:54:54.215Z,7.8
2016-11-26T00:56:09.482Z,7.84
2016-11-26T00:57:23.849Z,7.74
2016-11-26T00:58:38.510Z,7.8
2016-11-26T00:59:53.180Z,7.77
2016-11-26T01:01:07.211Z,7.72
2016-11-26T01:02:21.746Z,7.78
2016-11-26T01:03:35.821Z,7.83
2016-11-26T01:04:50.218Z,7.84
2016-11-26T01:06:04.330Z,7.8
2016-11-26T01:07:18.620Z,7.72
2016-11-26T01:08:32.719Z,7.78
2016-11-26T01:09:46.976Z,7.8
2016-11-26T01:11:01.257Z,7.81
2016-11-26T01:12:15.573Z,7.72
2016-11-26T01:13:29.747Z,7.74
2016-11-26T01:14:44.107Z,7.74
2016-11-26T01:15:58.411Z,7.85
2016-11-26T01:17:12.696Z,7.85
2016-11-26T01:18:26.895Z,7.88
2016-11-26T01:19:41.005Z,7.83
2016-11-26T01:20:56.499Z,7.75
2016-11-26T01:22:10.586Z,7.77
2016-11-26T01:23:25.003Z,7.78
2016-11-26T01:24:39.994Z,7.78
2016-11-26T01:25:54.393Z,7.87
2016-11-26T01:27:08.441Z,7.83
2016-11-26T01:28:22.720Z,7.83
2016-11-26T01:29:37.827Z,7.81
2016-11-26T01:31:06.776Z,7.81
2016-11-26T01:32:21.294Z,7.75
2016-11-26T01:33:35.514Z,7.84
2016-11-26T01:34:49.560Z,7.84
2016-11-26T01:36:03.795Z,7.8
2016-11-26T01:37:18.459Z,7.74
2016-11-26T01:38:34.861Z,7.85
2016-11-26T01:39:48.842Z,7.9
2016-11-26T01:41:03.073Z,7.9
2016-11-26T01:42:17.238Z,8.02
2016-11-26T01:43:31.503Z,8.03
2016-11-26T01:44:46.253Z,7.96
2016-11-26T01:46:00.291Z,7.81
2016-11-26T01:47:14.776Z,7.98
2016-11-26T01:48:29.819Z,7.93
2016-11-26T01:49:44.370Z,7.95
2016-11-26T01:50:58.815Z,7.93
2016-11-26T01:53:42.538Z,7.85
2016-11-26T01:54:57.498Z,7.83
2016-11-26T01:56:12.382Z,7.83
2016-11-26T01:57:26.565Z,7.83
2016-11-26T01:58:40.669Z,7.78
2016-11-26T01:59:54.569Z,7.84
2016-11-26T02:01:09.396Z,7.78
2016-11-26T02:02:23.738Z,7.83
2016-11-26T02:03:38.247Z,7.81
2016-11-26T02:04:53.001Z,7.78
2016-11-26T02:06:06.773Z,7.87
2016-11-26T02:07:21.198Z,7.8
2016-11-26T02:08:36.213Z,7.81
2016-11-26T02:09:50.354Z,7.84
2016-11-26T02:11:04.395Z,7.93
2016-11-26T02:12:18.612Z,7.96
2016-11-26T02:13:33.203Z,8.02
2016-11-26T02:14:47.152Z,8.06
2016-11-26T02:16:02.251Z,8.11
2016-11-26T02:17:16.339Z,7.99
2016-11-26T02:18:30.230Z,8.02
2016-11-26T02:19:44.295Z,8.06
2016-11-26T02:20:58.899Z,7.99
2016-11-26T02:22:13.269Z,8.06
2016-11-26T02:23:27.357Z,8.06
2016-11-26T02:24:41.763Z,8.03
2016-11-26T02:25:56.483Z,8.06
2016-11-26T02:27:10.723Z,8.14
2016-11-26T02:28:25.465Z,8.08
2016-11-26T02:29:39.812Z,8.01
2016-11-26T02:30:53.808Z,7.99
2016-11-26T02:32:08.099Z,8.05
2016-11-26T02:33:22.489Z,8.13
2016-11-26T02:34:36.720Z,8.16
2016-11-26T02:35:51.141Z,8.16
2016-11-26T02:37:05.151Z,8.05
2016-11-26T02:38:19.417Z,8.08
2016-11-26T02:39:33.739Z,7.95
2016-11-26T02:40:48.063Z,7.93
2016-11-26T02:42:02.491Z,7.87
2016-11-26T02:43:16.527Z,7.83
2016-11-26T02:44:30.722Z,7.77
2016-11-26T02:45:45.200Z,7.77
2016-11-26T02:46:58.932Z,7.77
2016-11-26T02:48:13.368Z,7.8
2016-11-26T02:49:27.505Z,7.8
2016-11-26T02:50:41.639Z,7.83
2016-11-26T02:51:56.016Z,7.8
2016-11-26T02:53:09.996Z,7.67
2016-11-26T02:54:23.968Z,7.69
2016-11-26T02:55:40.316Z,7.69
2016-11-26T02:56:55.405Z,7.69
2016-11-26T02:58:09.595Z,7.75
2016-11-26T02:59:23.504Z,7.67
2016-11-26T03:00:37.996Z,7.8
2016-11-26T03:01:52.056Z,7.72
2016-11-26T03:03:06.729Z,7.74
2016-11-26T03:04:21.092Z,7.69
2016-11-26T03:05:35.126Z,7.8
2016-11-26T03:06:49.261Z,7.74
2016-11-26T03:08:03.187Z,7.84
2016-11-26T03:09:17.726Z,7.74
2016-11-26T03:10:32.049Z,7.8
2016-11-26T03:11:46.100Z,7.75
2016-11-26T03:15:43.307Z,7.81
2016-11-26T03:16:57.751Z,7.78
2016-11-26T03:18:11.492Z,7.77
2016-11-26T03:19:25.442Z,7.78
2016-11-26T03:20:39.824Z,7.7
2016-11-26T03:21:54.342Z,7.81
2016-11-26T03:23:09.020Z,7.75
2016-11-26T03:24:23.410Z,7.83
2016-11-26T03:25:37.435Z,7.81
2016-11-26T03:27:06.556Z,7.62
2016-11-26T03:28:21.294Z,7.58
2016-11-26T03:29:36.323Z,7.64
2016-11-26T03:30:50.492Z,7.72
2016-11-26T03:32:04.843Z,7.61
2016-11-26T03:33:18.936Z,7.61
2016-11-26T03:34:33.069Z,7.78
2016-11-26T03:38:44.954Z,7.78
2016-11-26T03:40:13.600Z,7.8
2016-11-26T03:41:43.117Z,7.85
2016-11-26T03:42:57.141Z,7.84
2016-11-26T03:44:11.180Z,7.81
2016-11-26T03:45:25.250Z,7.7
2016-11-26T03:46:39.544Z,7.78
2016-11-26T03:47:53.926Z,7.85
2016-11-26T03:49:08.272Z,7.85
2016-11-26T03:50:22.275Z,7.8
2016-11-26T03:51:36.309Z,7.78
2016-11-26T03:53:05.382Z,7.85
2016-11-26T03:54:19.767Z,7.75
2016-11-26T03:55:33.797Z,7.75
2016-11-26T03:56:47.832Z,7.7
2016-11-26T03:58:16.613Z,7.64
2016-11-26T03:59:31.363Z,7.66
2016-11-26T04:00:45.633Z,7.78
2016-11-26T04:02:00.019Z,7.75
2016-11-26T04:03:14.225Z,7.78
2016-11-26T04:04:28.600Z,7.66
2016-11-26T04:08:40.539Z,7.7
2016-11-26T04:09:54.640Z,7.72
2016-11-26T04:11:09.334Z,7.74
2016-11-26T04:12:23.388Z,7.64
2016-11-26T04:13:37.532Z,7.69
2016-11-26T04:14:51.699Z,7.69
2016-11-26T04:16:05.792Z,7.67
2016-11-26T04:17:20.596Z,7.75
2016-11-26T04:18:37.943Z,7.8
2016-11-26T04:20:07.187Z,7.85
2016-11-26T04:21:21.619Z,7.77
2016-11-26T04:22:36.401Z,7.72
2016-11-26T04:24:05.193Z,7.78
2016-11-26T04:25:19.260Z,7.78
2016-11-26T04:26:33.627Z,7.77
2016-11-26T04:27:48.037Z,7.69
2016-11-26T04:29:02.710Z,7.81
2016-11-26T04:30:16.801Z,7.69
2016-11-26T04:31:31.203Z,7.67
2016-11-26T04:32:45.238Z,7.61
2016-11-26T04:33:59.646Z,7.66
2016-11-26T04:35:14.388Z,7.8
2016-11-26T04:36:28.461Z,7.8
2016-11-26T04:37:42.520Z,7.67
2016-11-26T04:38:56.588Z,7.67
2016-11-26T04:40:10.622Z,7.61
2016-11-26T04:41:25.677Z,7.64
2016-11-26T04:42:40.115Z,7.59
2016-11-26T04:43:54.154Z,7.58
2016-11-26T04:45:08.228Z,7.59
2016-11-26T04:46:22.317Z,7.58
2016-11-26T04:47:36.978Z,7.59
2016-11-26T04:48:51.519Z,7.56
2016-11-26T04:50:05.606Z,7.4
2016-11-26T04:51:19.768Z,7.48
2016-11-26T04:52:33.787Z,7.59
2016-11-26T04:53:48.450Z,7.58
2016-11-26T04:55:02.477Z,7.58
2016-11-26T04:56:16.856Z,7.64
2016-11-26T04:57:30.922Z,7.56
2016-11-26T04:58:44.988Z,7.58
2016-11-26T04:59:59.627Z,7.55
2016-11-26T05:01:13.676Z,7.62
2016-11-26T05:02:27.709Z,7.5
2016-11-26T05:03:42.892Z,7.46
2016-11-26T05:04:57.299Z,7.48
2016-11-26T05:06:11.970Z,7.5
2016-11-26T05:07:25.992Z,7.55
2016-11-26T05:08:40.028Z,7.51
2016-11-26T05:09:54.391Z,7.51
2016-11-26T05:11:09.120Z,7.55
2016-11-26T05:12:24.207Z,7.5
2016-11-26T05:13:38.633Z,7.56
2016-11-26T05:14:52.727Z,7.55
2016-11-26T05:16:07.102Z,7.5
2016-11-26T05:17:21.130Z,7.46
2016-11-26T05:18:35.795Z,7.53
2016-11-26T05:20:04.590Z,7.53
2016-11-26T05:21:18.647Z,7.46
2016-11-26T05:22:32.718Z,7.5
2016-11-26T05:23:47.443Z,7.48
2016-11-26T05:25:01.817Z,7.61
2016-11-26T05:26:15.830Z,7.51
2016-11-26T05:27:29.867Z,7.55
2016-11-26T05:29:00.033Z,7.59
2016-11-26T05:30:14.027Z,7.56
2016-11-26T05:31:28.039Z,7.5
2016-11-26T05:32:56.825Z,7.48
2016-11-26T05:34:10.830Z,7.46
2016-11-26T05:35:40.587Z,7.51
2016-11-26T05:37:41.123Z,7.48
2016-11-26T05:38:55.533Z,7.48
2016-11-26T05:40:09.470Z,7.51
2016-11-26T05:41:24.107Z,7.41
2016-11-26T05:42:38.379Z,7.5
2016-11-26T05:43:52.500Z,7.46
2016-11-26T05:45:06.565Z,7.56
2016-11-26T05:46:20.405Z,7.55
2016-11-26T05:47:34.944Z,7.59
2016-11-26T05:48:49.377Z,7.59
2016-11-26T05:50:03.374Z,7.58
2016-11-26T05:51:17.417Z,7.55
2016-11-26T05:52:31.502Z,7.51
2016-11-26T05:53:45.817Z,7.48
2016-11-26T05:55:00.220Z,7.48
2016-11-26T05:58:42.333Z,7.48
2016-11-26T05:59:57.034Z,7.59
2016-11-26T06:01:11.567Z,7.55
2016-11-26T06:02:25.613Z,7.58
2016-11-26T06:03:39.692Z,7.55
2016-11-26T06:04:53.664Z,7.62
2016-11-26T06:06:07.949Z,7.55
2016-11-26T06:07:22.614Z,7.58
2016-11-26T06:08:36.516Z,7.56
2016-11-26T06:09:50.704Z,7.51
2016-11-26T06:11:04.775Z,7.59
2016-11-26T06:12:19.300Z,7.55
2016-11-26T06:13:33.748Z,7.61
2016-11-26T06:14:47.921Z,7.64
2016-11-26T06:16:01.888Z,7.61
2016-11-26T06:17:16.533Z,7.61
2016-11-26T06:18:30.702Z,7.66
2016-11-26T06:19:45.360Z,7.72
2016-11-26T06:20:59.671Z,7.67
2016-11-26T06:22:13.932Z,7.64
2016-11-26T06:23:27.850Z,7.69
2016-11-26T06:24:42.149Z,7.55
2016-11-26T06:25:56.143Z,7.58
2016-11-26T06:27:10.504Z,7.56
2016-11-26T06:28:24.887Z,7.56
2016-11-26T06:29:38.968Z,7.61
2016-11-26T06:30:53.602Z,7.58
2016-11-26T06:32:07.557Z,7.56
2016-11-26T06:33:22.403Z,7.56
2016-11-26T06:34:36.667Z,7.58
2016-11-26T06:35:50.863Z,7.67
2016-11-26T06:37:05.567Z,7.61
2016-11-26T06:38:19.793Z,7.58
2016-11-26T06:39:34.147Z,7.61
2016-11-26T06:40:48.268Z,7.62
2016-11-26T06:42:02.426Z,7.64
2016-11-26T06:43:16.976Z,7.56
2016-11-26T06:44:31.160Z,7.66
2016-11-26T06:45:45.795Z,7.61
2016-11-26T06:47:00.416Z,7.61
2016-11-26T06:48:14.657Z,7.67
2016-11-26T06:49:29.177Z,7.64
2016-11-26T06:50:42.921Z,7.61
2016-11-26T06:51:57.592Z,7.59
2016-11-26T06:53:11.971Z,7.59
2016-11-26T06:54:26.293Z,7.53
2016-11-26T06:55:42.906Z,7.51
2016-11-26T06:56:57.298Z,7.5
2016-11-26T06:58:11.192Z,7.48
2016-11-26T06:59:25.589Z,7.48
2016-11-26T07:00:39.473Z,7.5
2016-11-26T07:01:54.054Z,7.56
2016-11-26T07:03:08.130Z,7.61
2016-11-26T07:04:22.870Z,7.58
2016-11-26T07:05:36.903Z,7.55
2016-11-26T07:06:51.789Z,7.59
2016-11-26T07:08:06.411Z,7.53
2016-11-26T07:09:20.862Z,7.58
2016-11-26T07:10:34.932Z,7.53
2016-11-26T07:13:33.741Z,7.43
2016-11-26T07:14:48.063Z,7.4
2016-11-26T07:16:02.070Z,7.37
2016-11-26T07:17:15.938Z,7.37
2016-11-26T07:18:30.381Z,7.37
2016-11-26T07:19:54.597Z,7.31
2016-11-26T07:21:16.586Z,7.41
2016-11-26T07:22:30.879Z,7.33
2016-11-26T07:23:44.747Z,7.32
2016-11-26T07:24:58.976Z,7.29
2016-11-26T07:26:15.150Z,7.31
2016-11-26T07:27:29.810Z,7.41
2016-11-26T07:28:45.938Z,7.41
2016-11-26T07:29:59.994Z,7.33
2016-11-26T07:31:14.474Z,7.37
2016-11-26T07:32:28.911Z,7.43
2016-11-26T07:33:43.288Z,7.41
2016-11-26T07:34:57.399Z,7.39
2016-11-26T07:36:11.938Z,7.37
2016-11-26T07:37:25.683Z,7.44
2016-11-26T07:38:40.060Z,7.31
2016-11-26T07:39:53.961Z,7.44
2016-11-26T07:41:08.095Z,7.39
2016-11-26T07:42:22.435Z,7.4
2016-11-26T07:43:36.495Z,7.37
2016-11-26T07:44:50.815Z,7.4
2016-11-26T07:46:05.637Z,7.26
2016-11-26T07:47:20.345Z,7.29
2016-11-26T07:48:34.743Z,7.29
2016-11-26T07:49:48.821Z,7.28
2016-11-26T07:51:03.663Z,7.25
2016-11-26T07:52:18.613Z,7.37
2016-11-26T07:53:32.964Z,7.29
2016-11-26T07:54:47.259Z,7.31
2016-11-26T07:56:01.196Z,7.21
2016-11-26T07:57:16.331Z,7.25
2016-11-26T07:58:30.776Z,7.29
2016-11-26T07:59:44.710Z,7.28
2016-11-26T08:00:58.897Z,7.25
2016-11-26T08:02:15.627Z,7.21
2016-11-26T08:03:29.844Z,7.28
2016-11-26T08:04:44.620Z,7.18
2016-11-26T08:05:58.486Z,7.23
2016-11-26T08:07:12.360Z,7.29
2016-11-26T08:08:27.188Z,7.19
2016-11-26T08:09:41.494Z,7.14
2016-11-26T08:10:55.646Z,7.11
2016-11-26T08:12:09.673Z,7.25
2016-11-26T08:13:26.143Z,7.05
2016-11-26T08:14:40.289Z,7.14
2016-11-26T08:15:54.429Z,7.15
2016-11-26T08:17:08.338Z,7.08
2016-11-26T08:18:22.245Z,7.01
2016-11-26T08:19:35.974Z,7.18
2016-11-26T08:20:49.725Z,7.14
2016-11-26T08:22:04.551Z,7.04
2016-11-26T08:23:18.498Z,7.04
2016-11-26T08:24:32.703Z,7.05
2016-11-26T08:25:46.764Z,6.97
2016-11-26T08:27:00.453Z,7.19
2016-11-26T08:28:14.919Z,7.25
2016-11-26T08:29:29.067Z,7.22
2016-11-26T08:30:43.109Z,7.21
2016-11-26T08:31:57.042Z,7.29
2016-11-26T08:33:11.211Z,7.29
2016-11-26T08:34:25.374Z,7.31
2016-11-26T08:35:39.875Z,7.31
2016-11-26T08:36:54.097Z,7.4
2016-11-26T08:38:08.607Z,7.36
2016-11-26T08:39:22.550Z,7.48
2016-11-26T08:40:36.806Z,7.46
2016-11-26T08:41:50.859Z,7.39
2016-11-26T08:43:05.630Z,7.48
2016-11-26T08:44:19.622Z,7.48
2016-11-26T08:45:33.522Z,7.36
2016-11-26T08:46:47.665Z,7.32
2016-11-26T08:48:01.551Z,7.39
2016-11-26T08:49:15.888Z,7.25
2016-11-26T08:50:30.077Z,7.39
2016-11-26T08:51:43.953Z,7.4
2016-11-26T08:52:58.435Z,7.32
2016-11-26T08:54:12.723Z,7.32
2016-11-26T08:55:26.960Z,7.26
2016-11-26T08:56:42.076Z,7.39
2016-11-26T08:57:56.617Z,7.36
2016-11-26T08:59:10.849Z,7.29
2016-11-26T09:00:25.424Z,7.29
2016-11-26T09:01:39.675Z,7.33
2016-11-26T09:02:54.273Z,7.29
2016-11-26T09:04:08.969Z,7.37
2016-11-26T09:05:23.154Z,7.28
2016-11-26T09:06:37.107Z,7.28
2016-11-26T09:07:51.374Z,7.36
2016-11-26T09:09:05.526Z,7.41
2016-11-26T09:10:20.273Z,7.29
2016-11-26T09:11:34.504Z,7.29
2016-11-26T09:12:48.987Z,7.26
2016-11-26T09:14:03.387Z,7.28
2016-11-26T09:15:17.673Z,7.28
2016-11-26T09:16:32.049Z,7.37
2016-11-26T09:17:46.177Z,7.33
2016-11-26T09:19:00.693Z,7.44
2016-11-26T09:20:14.521Z,7.55
2016-11-26T09:21:28.577Z,7.46
2016-11-26T09:22:43.059Z,7.47
2016-11-26T09:23:58.052Z,7.46
2016-11-26T09:25:11.922Z,7.46
2016-11-26T09:26:25.911Z,7.43
2016-11-26T09:27:39.789Z,7.46
2016-11-26T09:28:54.414Z,7.43
2016-11-26T09:30:10.911Z,7.31
2016-11-26T09:31:25.062Z,7.39
2016-11-26T09:32:39.501Z,7.4
2016-11-26T09:33:54.289Z,7.37
2016-11-26T09:35:08.943Z,7.4
2016-11-26T09:36:23.493Z,7.33
2016-11-26T09:37:37.526Z,7.37
2016-11-26T09:38:51.999Z,7.37
2016-11-26T09:40:07.631Z,7.31
2016-11-26T09:41:21.500Z,7.26
2016-11-26T09:42:36.863Z,7.36
2016-11-26T09:43:50.945Z,7.29
2016-11-26T09:45:05.623Z,7.29
2016-11-26T09:46:19.430Z,7.37
2016-11-26T09:47:33.519Z,7.43
2016-11-26T09:48:47.636Z,7.48
2016-11-26T09:50:02.362Z,7.44
2016-11-26T09:51:16.723Z,7.46
2016-11-26T09:52:30.490Z,7.56
2016-11-26T09:53:44.313Z,7.64
2016-11-26T09:54:59.033Z,7.61
2016-11-26T09:56:13.123Z,7.58
2016-11-26T09:57:27.838Z,7.59
2016-11-26T09:58:41.770Z,7.61
2016-11-26T09:59:57.629Z,7.59
2016-11-26T10:01:12.548Z,7.5
2016-11-26T10:02:26.570Z,7.56
2016-11-26T10:03:40.781Z,7.61
2016-11-26T10:04:55.381Z,7.64
2016-11-26T10:06:11.633Z,7.59
2016-11-26T10:07:25.420Z,7.58
2016-11-26T10:08:39.840Z,7.66
2016-11-26T10:09:54.080Z,7.74
2016-11-26T10:11:08.421Z,7.95
2016-11-26T10:12:22.999Z,7.93
2016-11-26T10:13:37.754Z,7.91
2016-11-26T10:14:52.140Z,7.96
2016-11-26T10:16:06.412Z,8.02
2016-11-26T10:17:20.387Z,7.98
2016-11-26T10:18:34.196Z,7.83
2016-11-26T10:19:48.473Z,7.98
2016-11-26T10:21:02.762Z,7.96
2016-11-26T10:22:16.987Z,7.87
2016-11-26T10:23:31.107Z,7.96
2016-11-26T10:24:45.929Z,7.91
2016-11-26T10:26:00.912Z,8.05
2016-11-26T10:27:15.354Z,8.06
2016-11-26T10:28:29.040Z,8.09
2016-11-26T10:29:43.197Z,8.16
2016-11-26T10:30:57.889Z,8.23
2016-11-26T10:32:12.773Z,8.2
2016-11-26T10:33:27.270Z,8.26
2016-11-26T10:34:41.265Z,8.21
2016-11-26T10:35:55.584Z,8.26
2016-11-26T10:37:10.643Z,8.26
2016-11-26T10:38:25.022Z,8.18
2016-11-26T10:39:39.158Z,8.11
2016-11-26T10:40:53.563Z,8.09
2016-11-26T10:42:08.313Z,8.23
2016-11-26T10:43:22.447Z,8.21
2016-11-26T10:44:36.531Z,8.21
2016-11-26T10:45:51.075Z,8.17
2016-11-26T10:47:08.018Z,8.23
2016-11-26T10:48:22.401Z,8.24
2016-11-26T10:49:37.133Z,8.36
2016-11-26T10:50:51.474Z,8.32
2016-11-26T10:52:05.952Z,8.35
2016-11-26T10:53:20.805Z,8.44
2016-11-26T10:54:35.310Z,8.36
2016-11-26T10:55:50.401Z,8.42
2016-11-26T10:57:06.120Z,8.49
2016-11-26T10:58:20.467Z,8.57
2016-11-26T10:59:35.185Z,8.56
2016-11-26T11:00:49.779Z,8.54
2016-11-26T11:02:03.654Z,8.57
2016-11-26T11:03:18.126Z,8.5
2016-11-26T11:04:32.939Z,8.46
2016-11-26T11:05:47.518Z,8.39
2016-11-26T11:07:02.507Z,8.57
2016-11-26T11:08:16.451Z,8.57
2016-11-26T11:09:31.371Z,8.63
2016-11-26T11:10:45.655Z,8.69
2016-11-26T11:11:59.954Z,8.71
2016-11-26T11:13:14.717Z,8.6
2016-11-26T11:14:28.653Z,8.52
2016-11-26T11:15:43.455Z,8.63
2016-11-26T11:17:02.350Z,8.56
2016-11-26T11:18:35.120Z,8.5
2016-11-26T11:20:02.114Z,8.52
2016-11-26T11:21:25.360Z,8.61
2016-11-26T11:22:55.526Z,8.71
2016-11-26T11:24:09.531Z,8.68
2016-11-26T11:25:24.297Z,8.66
2016-11-26T11:26:38.945Z,8.64
2016-11-26T11:27:53.781Z,8.66
2016-11-26T11:29:09.120Z,8.74
2016-11-26T11:30:23.709Z,8.66
2016-11-26T11:31:39.085Z,8.75
2016-11-26T11:32:53.494Z,8.69
2016-11-26T11:34:08.261Z,8.77
2016-11-26T11:35:22.544Z,8.78
2016-11-26T11:36:37.161Z,8.75
2016-11-26T11:37:51.209Z,8.72
2016-11-26T11:39:05.726Z,8.66
2016-11-26T11:40:20.741Z,8.61
2016-11-26T11:41:34.985Z,8.77
2016-11-26T11:42:49.368Z,8.79
2016-11-26T11:44:03.716Z,8.78
2016-11-26T11:45:18.435Z,8.82
2016-11-26T11:46:33.248Z,8.64
2016-11-26T11:47:47.750Z,8.61
2016-11-26T11:49:03.278Z,8.72
2016-11-26T11:50:18.073Z,8.78
2016-11-26T11:51:32.772Z,8.78
2016-11-26T11:52:47.504Z,8.79
2016-11-26T11:54:01.932Z,8.86
2016-11-26T11:55:16.762Z,8.84
2016-11-26T11:56:30.903Z,8.77
2016-11-26T11:57:45.418Z,8.86
2016-11-26T11:58:59.806Z,8.77
2016-11-26T12:00:15.157Z,8.78
2016-11-26T12:01:29.910Z,8.79
2016-11-26T12:02:44.037Z,8.77
2016-11-26T12:03:58.803Z,8.84
2016-11-26T12:05:15.392Z,8.81
2016-11-26T12:06:29.727Z,8.92
2016-11-26T12:07:43.936Z,8.74
2016-11-26T12:08:58.582Z,8.82
2016-11-26T12:10:13.379Z,8.84
2016-11-26T12:11:27.620Z,8.93
2016-11-26T12:12:42.313Z,8.95
2016-11-26T12:13:57.696Z,9.03
2016-11-26T12:15:12.332Z,9.18
2016-11-26T12:16:27.361Z,9.13
2016-11-26T12:17:42.628Z,9.19
2016-11-26T12:18:58.634Z,9.21
2016-11-26T12:20:13.379Z,9.27
2016-11-26T12:21:27.973Z,9.27
2016-11-26T12:22:42.343Z,9.21
2016-11-26T12:23:57.084Z,9.18
2016-11-26T12:25:11.331Z,9.18
2016-11-26T12:26:25.743Z,9.21
2016-11-26T12:27:41.059Z,9.31
2016-11-26T12:28:55.546Z,9.29
2016-11-26T12:30:09.818Z,9.26
2016-11-26T12:31:23.804Z,9.19
2016-11-26T12:32:38.176Z,9.3
2016-11-26T12:33:53.522Z,9.24
2016-11-26T12:35:07.706Z,9.27
2016-11-26T12:36:21.903Z,9.29
2016-11-26T12:37:36.548Z,9.26
2016-11-26T12:38:51.010Z,9.3
2016-11-26T12:40:05.713Z,9.22
2016-11-26T12:41:20.450Z,9.18
2016-11-26T12:42:34.680Z,9.18
2016-11-26T12:43:48.428Z,9.19
2016-11-26T12:45:03.069Z,9.24
2016-11-26T12:46:17.866Z,9.16
2016-11-26T12:47:33.800Z,9.19
2016-11-26T12:48:48.247Z,9.22
2016-11-26T12:50:02.312Z,9.19
2016-11-26T12:51:16.520Z,9.03
2016-11-26T12:52:31.584Z,9
2016-11-26T12:53:45.968Z,9.13
2016-11-26T12:55:00.267Z,9.21
2016-11-26T12:56:15.296Z,9.18
2016-11-26T12:57:30.265Z,9.21
2016-11-26T12:58:44.705Z,9.16
2016-11-26T12:59:59.455Z,9.16
2016-11-26T13:01:14.422Z,9.18
2016-11-26T13:02:28.563Z,9.02
2016-11-26T13:03:43.063Z,9.05
2016-11-26T13:04:57.749Z,9.02
2016-11-26T13:06:12.554Z,9.03
2016-11-26T13:07:26.897Z,9.03
2016-11-26T13:08:56.100Z,9.02
2016-11-26T13:10:10.561Z,9.03
2016-11-26T13:11:25.875Z,9.19
2016-11-26T13:12:40.240Z,9.18
2016-11-26T13:13:54.581Z,9.21
2016-11-26T13:15:08.821Z,9.33
2016-11-26T13:16:23.281Z,9.3
2016-11-26T13:17:38.178Z,9.22
2016-11-26T13:18:52.283Z,9.27
2016-11-26T13:20:06.072Z,9.29
2016-11-26T13:21:19.889Z,9.3
2016-11-26T13:22:36.092Z,9.3
2016-11-26T13:23:50.407Z,9.19
2016-11-26T13:25:04.944Z,9.26
2016-11-26T13:26:19.528Z,9.24
2016-11-26T13:27:34.005Z,9.26
2016-11-26T13:28:48.425Z,9.26
2016-11-26T13:30:02.711Z,9.16
2016-11-26T13:31:16.948Z,9.24
2016-11-26T13:32:30.963Z,9.29
2016-11-26T13:33:45.188Z,9.34
2016-11-26T13:35:01.585Z,9.4
2016-11-26T13:36:15.977Z,9.27
2016-11-26T13:37:30.312Z,9.33
2016-11-26T13:38:45.127Z,9.27
2016-11-26T13:39:59.232Z,9.33
2016-11-26T13:41:13.739Z,9.31
2016-11-26T13:42:28.141Z,9.36
2016-11-26T13:43:43.217Z,9.36
2016-11-26T13:45:00.962Z,9.39
2016-11-26T13:46:18.517Z,9.31
2016-11-26T13:47:38.728Z,9.36
2016-11-26T13:48:59.105Z,9.26
2016-11-26T13:50:14.225Z,9.26
2016-11-26T13:51:29.334Z,9.36
2016-11-26T13:52:43.815Z,9.33
2016-11-26T13:54:12.552Z,9.3
2016-11-26T13:55:27.877Z,9.27
2016-11-26T13:56:42.171Z,9.19
2016-11-26T13:57:56.615Z,9.19
2016-11-26T13:59:10.955Z,9.18
2016-11-26T14:00:28.958Z,9.24
2016-11-26T14:01:58.557Z,9.21
2016-11-26T14:03:12.795Z,9.12
2016-11-26T14:04:27.427Z,9.21
2016-11-26T14:05:41.610Z,9.16
2016-11-26T14:06:56.894Z,9.29
2016-11-26T14:08:10.668Z,9.18
2016-11-26T14:09:25.045Z,9.18
2016-11-26T14:10:42.482Z,9.16
2016-11-26T14:11:57.134Z,9.19
2016-11-26T14:13:13.345Z,9.16
2016-11-26T14:14:28.344Z,9.13
2016-11-26T14:15:45.088Z,9.3
2016-11-26T14:17:02.856Z,9.16
2016-11-26T14:18:18.413Z,9.21
2016-11-26T14:19:33.410Z,9.11
2016-11-26T14:20:49.200Z,9.18
2016-11-26T14:22:04.738Z,9.16
2016-11-26T14:23:19.676Z,9.13
2016-11-26T14:24:34.817Z,9.22
2016-11-26T14:25:49.541Z,9.18
2016-11-26T14:27:04.276Z,9.21
2016-11-26T14:28:20.066Z,9.24
2016-11-26T14:29:35.268Z,9.19
2016-11-26T14:30:50.228Z,9.19
2016-11-26T14:32:04.613Z,9.24
2016-11-26T14:33:19.326Z,9.26
2016-11-26T14:34:36.582Z,9.16
2016-11-26T14:35:53.789Z,9.27
2016-11-26T14:37:08.148Z,9.24
2016-11-26T14:38:23.428Z,9.19
2016-11-26T14:39:37.830Z,9.31
2016-11-26T14:40:55.022Z,9.31
2016-11-26T14:42:09.665Z,9.27
2016-11-26T14:43:23.837Z,9.26
2016-11-26T14:44:39.496Z,9.27
2016-11-26T14:45:54.163Z,9.24
2016-11-26T14:47:09.028Z,9.3
2016-11-26T14:48:26.021Z,9.31
2016-11-26T14:49:42.988Z,9.29
2016-11-26T14:50:57.914Z,9.33
2016-11-26T14:52:12.262Z,9.4
2016-11-26T14:53:26.755Z,9.39
2016-11-26T14:54:41.489Z,9.33
2016-11-26T14:55:55.960Z,9.31
2016-11-26T14:57:09.810Z,9.34
2016-11-26T14:58:24.145Z,9.37
2016-11-26T14:59:38.543Z,9.37
2016-11-26T15:00:52.957Z,9.33
2016-11-26T15:02:07.863Z,9.36
2016-11-26T15:03:22.048Z,9.36
2016-11-26T15:04:36.854Z,9.34
2016-11-26T15:05:51.454Z,9.42
2016-11-26T15:07:05.925Z,9.36
2016-11-26T15:08:21.751Z,9.39
2016-11-26T15:09:37.338Z,9.34
2016-11-26T15:10:52.024Z,9.39
2016-11-26T15:12:06.675Z,9.27
2016-11-26T15:13:20.696Z,9.18
2016-11-26T15:14:35.525Z,9.29
2016-11-26T15:15:49.692Z,9.22
2016-11-26T15:17:04.208Z,9.16
2016-11-26T15:18:18.143Z,9.21
2016-11-26T15:19:32.999Z,9.22
2016-11-26T15:20:47.786Z,9.16
2016-11-26T15:22:01.753Z,9.16
2016-11-26T15:23:16.215Z,9.19
2016-11-26T15:24:45.291Z,9.19
2016-11-26T15:25:59.991Z,9.16
2016-11-26T15:27:13.807Z,9.15
2016-11-26T15:28:28.147Z,9.15
2016-11-26T15:29:42.276Z,9.18
2016-11-26T15:31:12.122Z,9.16
2016-11-26T15:32:26.698Z,9.13
2016-11-26T15:33:42.578Z,9.21
2016-11-26T15:34:56.688Z,9.27
2016-11-26T15:36:10.989Z,9.27
2016-11-26T15:37:25.976Z,9.37
2016-11-26T15:38:40.389Z,9.37
2016-11-26T15:39:54.793Z,9.33
2016-11-26T15:41:08.837Z,9.36
2016-11-26T15:42:23.587Z,9.27
2016-11-26T15:43:38.501Z,9.3
2016-11-26T15:44:53.152Z,9.37
2016-11-26T15:46:07.632Z,9.29
2016-11-26T15:47:22.054Z,9.37
2016-11-26T15:48:36.323Z,9.3
2016-11-26T15:49:50.502Z,9.34
2016-11-26T15:51:06.281Z,9.39
2016-11-26T15:52:20.785Z,9.37
2016-11-26T15:53:34.974Z,9.39
2016-11-26T15:54:49.834Z,9.44
2016-11-26T15:56:03.901Z,9.49
2016-11-26T15:57:18.167Z,9.52
2016-11-26T15:58:34.813Z,9.48
2016-11-26T15:59:49.272Z,9.55
2016-11-26T16:01:04.195Z,9.44
2016-11-26T16:02:18.477Z,9.48
2016-11-26T16:03:33.687Z,9.54
2016-11-26T16:04:49.559Z,9.51
2016-11-26T16:06:08.265Z,9.55
2016-11-26T16:07:25.851Z,9.55
2016-11-26T16:08:43.258Z,9.63
2016-11-26T16:10:02.606Z,9.66
2016-11-26T16:11:21.280Z,9.55
2016-11-26T16:12:37.062Z,9.56
2016-11-26T16:13:51.906Z,9.67
2016-11-26T16:15:08.964Z,9.66
2016-11-26T16:18:26.569Z,9.56
2016-11-26T16:19:58.416Z,9.63
2016-11-26T16:21:15.822Z,9.64
2016-11-26T16:22:31.896Z,9.55
2016-11-26T16:23:47.597Z,9.47
2016-11-26T16:25:05.954Z,9.45
2016-11-26T16:26:38.806Z,9.55
2016-11-26T16:27:55.265Z,9.56
2016-11-26T16:29:11.880Z,9.67
2016-11-26T16:30:28.021Z,9.56
2016-11-26T16:31:42.824Z,9.59
2016-11-26T16:32:58.891Z,9.7
2016-11-26T16:34:13.992Z,9.64
2016-11-26T16:35:29.683Z,9.72
2016-11-26T16:36:45.759Z,9.8
2016-11-26T16:38:00.142Z,9.76
2016-11-26T16:39:15.573Z,9.85
2016-11-26T16:40:31.236Z,9.94
2016-11-26T16:41:48.077Z,9.85
2016-11-26T16:43:02.794Z,9.85
2016-11-26T16:44:23.128Z,9.88
2016-11-26T16:45:55.040Z,9.85
2016-11-26T16:47:26.883Z,9.7
2016-11-26T16:48:44.640Z,9.69
2016-11-26T16:51:33.814Z,9.8
2016-11-26T16:52:49.350Z,9.82
2016-11-26T16:54:06.987Z,9.91
2016-11-26T16:55:23.303Z,10
2016-11-26T16:56:37.824Z,9.97
2016-11-26T16:57:53.566Z,9.87
2016-11-26T16:59:09.293Z,9.88
2016-11-26T17:00:24.223Z,9.88
2016-11-26T17:01:39.506Z,9.88